Time;durP1;ratioP1;P1;durP2;ratioP2;P2;SDS_P1;SDS_P2;PMS_P1;PMS_P2;Temp;Humidity;BMP_temperature;BMP_pressure;BME280_temperature;BME280_humidity;BME280_pressure;Samples;Min_cycle;Max_cycle;Signal;HPM_P1;HPM_P2
2022/10/27 00:00:45;;;;;;;;;;;;;;;;;;5074225;28;830;-78
2022/10/27 00:03:12;;;;;;;;;;;;;;;;;;5073533;28;1068;-79
2022/10/27 00:05:38;;;;;;;;;;;;;;;;;;5074659;28;948;-79
2022/10/27 00:08:05;;;;;;;;;;;;;;;;;;5076590;28;1298;-79
2022/10/27 00:10:31;;;;;;;;;;;;;;;;;;5078924;28;1075;-78
2022/10/27 00:12:58;;;;;;;;;;;;;;;;;;5080054;28;1259;-78
2022/10/27 00:15:24;;;;;;;;;;;;;;;;;;5080641;28;1977;-79
2022/10/27 00:17:51;;;;;;;;;;;;;;;;;;5079960;28;1300;-78
2022/10/27 00:20:17;;;;;;;;;;;;;;;;;;5077830;28;1009;-78
2022/10/27 00:22:43;;;;;;;;;;;;;;;;;;5078549;28;933;-78
2022/10/27 00:25:09;;;;;;;;;;;;;;;;;;5062865;28;1264;-79
2022/10/27 00:27:36;;;;;;;;;;;;;;;;;;5078395;28;1290;-79
2022/10/27 00:30:03;;;;;;;;;;;;;;;;;;5079432;28;886;-79
2022/10/27 00:32:29;;;;;;;;;;;;;;;;;;5059729;28;1328;-79
2022/10/27 00:34:56;;;;;;;;;;;;;;;;;;5077362;28;1977;-79
2022/10/27 00:37:22;;;;;;;;;;;;;;;;;;5077076;28;1308;-79
2022/10/27 00:39:48;;;;;;;;;;;;;;;;;;5062210;28;1502;-77
2022/10/27 00:42:14;;;;;;;;;;;;;;;;;;5039842;28;1123;-77
2022/10/27 00:44:41;;;;;;;;;;;;;;;;;;5057628;28;1275;-78
2022/10/27 00:47:11;;;;;;;;;;;;;;;;;;5056724;28;1289;-77
2022/10/27 00:49:38;;;;;;;;;;;;;;;;;;5058257;28;936;-79
2022/10/27 00:52:05;;;;;;;;;;;;;;;;;;5057615;28;1119;-79
2022/10/27 00:54:32;;;;;;;;;;;;;;;;;;5039667;28;1227;-79
2022/10/27 00:56:58;;;;;;;;;;;;;;;;;;5058264;28;1950;-79
2022/10/27 00:59:25;;;;;;;;;;;;;;;;;;5039666;28;1347;-79
2022/10/27 01:01:51;;;;;;;;;;;;;;;;;;5040176;28;1085;-79
2022/10/27 01:04:20;;;;;;;;;;;;;;;;;;5058036;28;1056;-79
2022/10/27 01:06:46;;;;;;;;;;;;;;;;;;5066052;28;1836;-79
2022/10/27 01:09:12;;;;;;;;;;;;;;;;;;5078832;28;1158;-78
2022/10/27 01:11:38;;;;;;;;;;;;;;;;;;5077451;28;1078;-79
2022/10/27 01:14:05;;;;;;;;;;;;;;;;;;5059764;28;1175;-78
2022/10/27 01:16:31;;;;;;;;;;;;;;;;;;5077701;28;1971;-78
2022/10/27 01:18:59;;;;;;;;;;;;;;;;;;5077159;28;1420;-77
2022/10/27 01:21:35;;;;;;;;;;;;;;;;;;5074066;28;1086;-76
2022/10/27 01:24:10;;;;;;;;;;;;;;;;;;5074580;28;1071;-77
2022/10/27 01:26:41;;;;;;;;;;;;;;;;;;5059765;28;1384;-76
2022/10/27 01:29:12;;;;;;;;;;;;;;;;;;5075949;28;1114;-76
2022/10/27 01:31:41;;;;;;;;;;;;;;;;;;5073740;28;783;-77
2022/10/27 01:34:07;;;;;;;;;;;;;;;;;;5073676;28;1067;-77
2022/10/27 01:36:35;;;;;;;;;;;;;;;;;;5073610;28;1957;-78
2022/10/27 01:39:03;;;;;;;;;;;;;;;;;;5055952;28;1217;-78
2022/10/27 01:41:30;;;;;;;;;;;;;;;;;;5073402;28;672;-77
2022/10/27 01:43:57;;;;;;;;;;;;;;;;;;5073890;28;1439;-77
2022/10/27 01:46:24;;;;;;;;;;;;;;;;;;5073396;28;1112;-77
2022/10/27 01:48:51;;;;;;;;;;;;;;;;;;5073256;28;1347;-77
2022/10/27 01:51:17;;;;;;;;;;;;;;;;;;5073391;28;1083;-76
2022/10/27 01:53:44;;;;;;;;;;;;;;;;;;5074366;28;988;-78
2022/10/27 01:56:15;;;;;;;;;;;;;;;;;;5055862;28;1971;-77
2022/10/27 01:58:48;;;;;;;;;;;;;;;;;;5074172;28;1335;-79
2022/10/27 02:01:19;;;;;;;;;;;;;;;;;;5055435;28;1313;-77
2022/10/27 02:03:46;;;;;;;;;;;;;;;;;;5055527;28;1283;-77
2022/10/27 02:06:15;;;;;;;;;;;;;;;;;;5073148;28;980;-78
2022/10/27 02:08:42;;;;;;;;;;;;;;;;;;5073317;28;1320;-77
2022/10/27 02:11:08;;;;;;;;;;;;;;;;;;5067399;28;1527;-77
2022/10/27 02:13:35;;;;;;;;;;;;;;;;;;5058373;28;890;-78
2022/10/27 02:16:02;;;;;;;;;;;;;;;;;;5061651;28;1952;-78
2022/10/27 02:18:29;;;;;;;;;;;;;;;;;;5054907;28;1287;-78
2022/10/27 02:20:56;;;;;;;;;;;;;;;;;;5034971;28;1238;-78
2022/10/27 02:23:24;;;;;;;;;;;;;;;;;;5052463;28;1104;-78
2022/10/27 02:25:52;;;;;;;;;;;;;;;;;;5052989;28;1064;-77
2022/10/27 02:28:18;;;;;;;;;;;;;;;;;;5053028;28;1345;-78
2022/10/27 02:30:45;;;;;;;;;;;;;;;;;;5052515;28;783;-78
2022/10/27 02:33:11;;;;;;;;;;;;;;;;;;5054599;28;1503;-77
2022/10/27 02:35:37;;;;;;;;;;;;;;;;;;5052618;28;1919;-77
2022/10/27 02:38:04;;;;;;;;;;;;;;;;;;5034889;28;1399;-77
2022/10/27 02:40:31;;;;;;;;;;;;;;;;;;5034722;28;1294;-77
2022/10/27 02:42:57;;;;;;;;;;;;;;;;;;5052352;28;1060;-78
2022/10/27 02:45:23;;;;;;;;;;;;;;;;;;5052696;28;807;-77
2022/10/27 02:47:50;;;;;;;;;;;;;;;;;;5052298;28;1334;-77
2022/10/27 02:50:16;;;;;;;;;;;;;;;;;;5053034;28;984;-78
2022/10/27 02:52:42;;;;;;;;;;;;;;;;;;5052036;28;1091;-77
2022/10/27 02:55:09;;;;;;;;;;;;;;;;;;5052550;28;949;-77
2022/10/27 02:57:36;;;;;;;;;;;;;;;;;;5052590;28;1910;-77
2022/10/27 03:00:03;;;;;;;;;;;;;;;;;;5052122;28;1068;-78
2022/10/27 03:02:29;;;;;;;;;;;;;;;;;;5034364;28;1088;-78
2022/10/27 03:04:56;;;;;;;;;;;;;;;;;;5052397;28;838;-77
2022/10/27 03:07:23;;;;;;;;;;;;;;;;;;5052277;28;1289;-77
2022/10/27 03:09:49;;;;;;;;;;;;;;;;;;5052288;28;992;-77
2022/10/27 03:12:15;;;;;;;;;;;;;;;;;;5052084;28;1075;-77
2022/10/27 03:14:42;;;;;;;;;;;;;;;;;;5052380;28;925;-78
2022/10/27 03:17:09;;;;;;;;;;;;;;;;;;5034087;28;1985;-77
2022/10/27 03:19:35;;;;;;;;;;;;;;;;;;5052189;28;795;-77
2022/10/27 03:22:01;;;;;;;;;;;;;;;;;;5051877;28;1009;-77
2022/10/27 03:24:27;;;;;;;;;;;;;;;;;;5051956;28;1116;-76
2022/10/27 03:26:53;;;;;;;;;;;;;;;;;;5052242;28;1720;-77
2022/10/27 03:29:19;;;;;;;;;;;;;;;;;;5052125;28;993;-78
2022/10/27 03:31:47;;;;;;;;;;;;;;;;;;5051588;28;937;-78
2022/10/27 03:34:13;;;;;;;;;;;;;;;;;;5052344;28;1068;-78
2022/10/27 03:36:39;;;;;;;;;;;;;;;;;;5057556;28;1914;-78
2022/10/27 03:39:05;;;;;;;;;;;;;;;;;;5072201;28;1111;-77
2022/10/27 03:41:32;;;;;;;;;;;;;;;;;;5071772;28;1277;-78
2022/10/27 03:43:58;;;;;;;;;;;;;;;;;;5055917;28;1144;-78
2022/10/27 03:46:24;;;;;;;;;;;;;;;;;;5075934;28;1130;-78
2022/10/27 03:48:51;;;;;;;;;;;;;;;;;;5075623;28;1286;-78
2022/10/27 03:51:18;;;;;;;;;;;;;;;;;;5076358;28;1080;-79
2022/10/27 03:53:44;;;;;;;;;;;;;;;;;;5076152;28;961;-78
2022/10/27 03:56:10;;;;;;;;;;;;;;;;;;5057676;28;1973;-78
2022/10/27 03:58:36;;;;;;;;;;;;;;;;;;5075828;28;1292;-77
2022/10/27 04:01:03;;;;;;;;;;;;;;;;;;5075667;28;1087;-78
2022/10/27 04:03:29;;;;;;;;;;;;;;;;;;5075474;28;1118;-77
2022/10/27 04:05:57;;;;;;;;;;;;;;;;;;5057777;28;1132;-78
2022/10/27 04:08:23;;;;;;;;;;;;;;;;;;5075525;28;1367;-78
2022/10/27 04:10:49;;;;;;;;;;;;;;;;;;5075613;28;996;-78
2022/10/27 04:13:15;;;;;;;;;;;;;;;;;;5057164;28;1325;-78
2022/10/27 04:15:41;;;;;;;;;;;;;;;;;;5074860;28;1087;-78
2022/10/27 04:18:08;;;;;;;;;;;;;;;;;;5068289;28;1973;-77
2022/10/27 04:20:34;;;;;;;;;;;;;;;;;;5074552;28;1400;-77
2022/10/27 04:23:01;;;;;;;;;;;;;;;;;;5068798;28;1225;-77
2022/10/27 04:25:27;;;;;;;;;;;;;;;;;;5067784;28;1466;-77
2022/10/27 04:27:57;;;;;;;;;;;;;;;;;;5082302;28;1551;-78
2022/10/27 04:30:23;;;;;;;;;;;;;;;;;;5036927;28;1131;-75
2022/10/27 04:32:51;;;;;;;;;;;;;;;;;;5080021;28;1411;-78
2022/10/27 04:35:17;;;;;;;;;;;;;;;;;;5099483;28;1216;-78
2022/10/27 04:37:44;;;;;;;;;;;;;;;;;;5077943;28;1918;-78
2022/10/27 04:40:12;;;;;;;;;;;;;;;;;;5066163;28;1182;-78
2022/10/27 04:42:38;;;;;;;;;;;;;;;;;;5091482;28;1412;-77
2022/10/27 04:45:04;;;;;;;;;;;;;;;;;;5077602;28;1754;-77
2022/10/27 04:47:30;;;;;;;;;;;;;;;;;;5081935;28;1335;-77
2022/10/27 04:49:57;;;;;;;;;;;;;;;;;;5056781;28;1301;-77
2022/10/27 04:52:23;;;;;;;;;;;;;;;;;;5074971;28;1063;-77
2022/10/27 04:54:49;;;;;;;;;;;;;;;;;;5056100;28;1252;-77
2022/10/27 04:57:17;;;;;;;;;;;;;;;;;;5056506;28;1919;-77
2022/10/27 04:59:43;;;;;;;;;;;;;;;;;;5074585;28;1059;-76
2022/10/27 05:02:09;;;;;;;;;;;;;;;;;;5074360;28;870;-76
2022/10/27 05:04:36;;;;;;;;;;;;;;;;;;5074685;28;1419;-77
2022/10/27 05:07:02;;;;;;;;;;;;;;;;;;5071006;28;1853;-77
2022/10/27 05:09:28;;;;;;;;;;;;;;;;;;5074326;28;1134;-77
2022/10/27 05:11:54;;;;;;;;;;;;;;;;;;5074154;28;987;-78
2022/10/27 05:14:22;;;;;;;;;;;;;;;;;;5070536;28;1439;-78
2022/10/27 05:16:48;;;;;;;;;;;;;;;;;;5061946;28;1918;-77
2022/10/27 05:19:14;;;;;;;;;;;;;;;;;;5086623;28;1512;-77
2022/10/27 05:21:40;;;;;;;;;;;;;;;;;;5082111;28;1287;-77
2022/10/27 05:24:07;;;;;;;;;;;;;;;;;;5077040;28;1184;-77
2022/10/27 05:26:33;;;;;;;;;;;;;;;;;;5074222;28;1322;-78
2022/10/27 05:28:59;;;;;;;;;;;;;;;;;;5083490;28;1448;-77
2022/10/27 05:31:26;;;;;;;;;;;;;;;;;;5080219;28;1343;-78
2022/10/27 05:33:53;;;;;;;;;;;;;;;;;;5081996;28;1291;-76
2022/10/27 05:36:19;;;;;;;;;;;;;;;;;;5061865;28;1386;-77
2022/10/27 05:38:45;;;;;;;;;;;;;;;;;;5048738;28;1934;-76
2022/10/27 05:41:11;;;;;;;;;;;;;;;;;;5069992;28;1120;-77
2022/10/27 05:43:38;;;;;;;;;;;;;;;;;;5066863;28;1643;-76
2022/10/27 05:46:04;;;;;;;;;;;;;;;;;;5091633;28;1043;-78
2022/10/27 05:48:31;;;;;;;;;;;;;;;;;;5089162;28;1494;-78
2022/10/27 05:50:57;;;;;;;;;;;;;;;;;;5070399;28;1688;-77
2022/10/27 05:53:24;;;;;;;;;;;;;;;;;;5080109;28;1506;-76
2022/10/27 05:55:51;;;;;;;;;;;;;;;;;;5075615;28;1787;-77
2022/10/27 05:58:18;;;;;;;;;;;;;;;;;;5089790;28;1906;-78
2022/10/27 06:00:44;;;;;;;;;;;;;;;;;;5087774;28;1601;-79
2022/10/27 06:03:13;;;;;;;;;;;;;;;;;;5081226;28;1173;-79
2022/10/27 06:05:41;;;;;;;;;;;;;;;;;;5054244;28;1377;-80
2022/10/27 06:08:07;;;;;;;;;;;;;;;;;;5069022;28;1430;-77
2022/10/27 06:10:33;;;;;;;;;;;;;;;;;;5076510;28;1076;-79
2022/10/27 06:13:02;;;;;;;;;;;;;;;;;;5067232;28;1451;-76
2022/10/27 06:15:29;;;;;;;;;;;;;;;;;;5083800;28;1735;-78
2022/10/27 06:17:55;;;;;;;;;;;;;;;;;;5083266;28;1965;-78
2022/10/27 06:20:21;;;;;;;;;;;;;;;;;;5081186;28;1412;-77
2022/10/27 06:22:49;;;;;;;;;;;;;;;;;;5080710;28;2033;-79
2022/10/27 06:25:15;;;;;;;;;;;;;;;;;;5074142;28;1141;-79
2022/10/27 06:27:41;;;;;;;;;;;;;;;;;;5071964;28;1381;-79
2022/10/27 06:30:08;;;;;;;;;;;;;;;;;;5070466;28;1444;-78
2022/10/27 06:32:36;;;;;;;;;;;;;;;;;;5060519;28;1254;-77
2022/10/27 06:35:02;;;;;;;;;;;;;;;;;;5070525;28;1474;-77
2022/10/27 06:37:28;;;;;;;;;;;;;;;;;;5085204;28;1973;-79
2022/10/27 06:39:56;;;;;;;;;;;;;;;;;;5073415;28;1475;-80
2022/10/27 06:42:23;;;;;;;;;;;;;;;;;;5080836;28;1396;-80
2022/10/27 06:44:50;;;;;;;;;;;;;;;;;;5071484;28;1314;-78
2022/10/27 06:47:16;;;;;;;;;;;;;;;;;;5079336;28;1460;-78
2022/10/27 06:49:42;;;;;;;;;;;;;;;;;;5084058;28;1333;-78
2022/10/27 06:52:08;;;;;;;;;;;;;;;;;;5074098;28;1411;-80
2022/10/27 06:54:35;;;;;;;;;;;;;;;;;;5092881;28;1632;-83
2022/10/27 06:57:02;;;;;;;;;;;;;;;;;;5099620;28;1886;-82
2022/10/27 06:59:28;;;;;;;;;;;;;;;;;;5076688;28;1387;-80
2022/10/27 07:01:55;;;;;;;;;;;;;;;;;;5099461;28;1166;-82
2022/10/27 07:04:21;;;;;;;;;;;;;;;;;;5109303;28;941;-82
2022/10/27 07:06:47;;;;;;;;;;;;;;;;;;5088188;28;1447;-81
2022/10/27 07:09:13;;;;;;;;;;;;;;;;;;5095329;28;1193;-80
2022/10/27 07:11:39;;;;;;;;;;;;;;;;;;5073736;28;1380;-79
2022/10/27 07:14:07;;;;;;;;;;;;;;;;;;5085238;28;1257;-79
2022/10/27 07:16:33;;;;;;;;;;;;;;;;;;5093216;28;945;-78
2022/10/27 07:18:59;;;;;;;;;;;;;;;;;;5072523;28;1969;-78
2022/10/27 07:21:26;;;;;;;;;;;;;;;;;;5085124;28;1438;-77
2022/10/27 07:23:53;;;;;;;;;;;;;;;;;;5087193;28;1435;-78
2022/10/27 07:26:19;;;;;;;;;;;;;;;;;;5089779;28;1370;-78
2022/10/27 07:28:45;;;;;;;;;;;;;;;;;;5098833;28;1298;-78
2022/10/27 07:31:12;;;;;;;;;;;;;;;;;;5083201;28;1473;-79
2022/10/27 07:33:39;;;;;;;;;;;;;;;;;;5082404;28;1416;-78
2022/10/27 07:36:05;;;;;;;;;;;;;;;;;;5090455;28;1176;-79
2022/10/27 07:38:31;;;;;;;;;;;;;;;;;;5099045;28;1914;-78
2022/10/27 07:40:58;;;;;;;;;;;;;;;;;;5093491;28;1509;-77
2022/10/27 07:43:24;;;;;;;;;;;;;;;;;;5079760;28;1123;-77
2022/10/27 07:45:50;;;;;;;;;;;;;;;;;;5082913;28;962;-79
2022/10/27 07:48:17;;;;;;;;;;;;;;;;;;5062492;28;1450;-76
2022/10/27 07:50:44;;;;;;;;;;;;;;;;;;5074346;28;1179;-77
2022/10/27 07:53:10;;;;;;;;;;;;;;;;;;5077331;28;1487;-77
2022/10/27 07:55:37;;;;;;;;;;;;;;;;;;5086339;28;1137;-77
2022/10/27 07:58:03;;;;;;;;;;;;;;;;;;5078141;28;1906;-77
2022/10/27 08:00:32;;;;;;;;;;;;;;;;;;5077346;28;1184;-77
2022/10/27 08:02:59;;;;;;;;;;;;;;;;;;5078016;28;996;-77
2022/10/27 08:05:26;;;;;;;;;;;;;;;;;;5076179;28;1419;-78
2022/10/27 08:07:56;;;;;;;;;;;;;;;;;;5082430;28;1423;-77
2022/10/27 08:10:22;;;;;;;;;;;;;;;;;;5067218;28;1486;-78
2022/10/27 08:12:48;;;;;;;;;;;;;;;;;;5065874;28;1419;-76
2022/10/27 08:15:15;;;;;;;;;;;;;;;;;;5089444;28;1284;-76
2022/10/27 08:17:41;;;;;;;;;;;;;;;;;;5079628;28;1973;-77
2022/10/27 08:20:08;;;;;;;;;;;;;;;;;;5065207;28;1048;-76
2022/10/27 08:22:35;;;;;;;;;;;;;;;;;;5041030;28;1451;-78
2022/10/27 08:25:01;;;;;;;;;;;;;;;;;;5075109;28;1474;-78
2022/10/27 08:27:28;;;;;;;;;;;;;;;;;;5067244;28;1329;-76
2022/10/27 08:29:54;;;;;;;;;;;;;;;;;;5081447;28;1570;-76
2022/10/27 08:32:20;;;;;;;;;;;;;;;;;;5074872;28;1091;-77
2022/10/27 08:34:46;;;;;;;;;;;;;;;;;;5065587;28;1539;-79
2022/10/27 08:37:12;;;;;;;;;;;;;;;;;;5085737;28;1393;-78
2022/10/27 08:39:40;;;;;;;;;;;;;;;;;;5088058;28;1910;-79
2022/10/27 08:42:07;;;;;;;;;;;;;;;;;;5094850;28;1161;-82
2022/10/27 08:44:34;;;;;;;;;;;;;;;;;;5068543;28;1126;-79
2022/10/27 08:47:02;;;;;;;;;;;;;;;;;;5083434;28;1379;-79
2022/10/27 08:49:31;;;;;;;;;;;;;;;;;;5097162;28;1547;-78
2022/10/27 08:51:59;;;;;;;;;;;;;;;;;;5074308;28;956;-78
2022/10/27 08:54:25;;;;;;;;;;;;;;;;;;5056757;28;1218;-77
2022/10/27 08:56:53;;;;;;;;;;;;;;;;;;5056825;28;1336;-78
2022/10/27 08:59:19;;;;;;;;;;;;;;;;;;5077246;28;1914;-79
2022/10/27 09:01:48;;;;;;;;;;;;;;;;;;5075079;28;1455;-77
2022/10/27 09:04:17;;;;;;;;;;;;;;;;;;5060450;28;1380;-79
2022/10/27 09:06:47;;;;;;;;;;;;;;;;;;5081043;28;1377;-77
2022/10/27 09:09:16;;;;;;;;;;;;;;;;;;5095084;28;1047;-78
2022/10/27 09:11:45;;;;;;;;;;;;;;;;;;5094082;28;794;-77
2022/10/27 09:14:17;;;;;;;;;;;;;;;;;;5094450;28;1063;-78
2022/10/27 09:16:44;;;;;;;;;;;;;;;;;;5083622;28;1419;-77
2022/10/27 09:19:12;;;;;;;;;;;;;;;;;;5074997;28;1910;-78
2022/10/27 09:21:38;;;;;;;;;;;;;;;;;;5087946;28;1208;-78
2022/10/27 09:24:05;;;;;;;;;;;;;;;;;;5075654;28;1458;-78
2022/10/27 09:26:32;;;;;;;;;;;;;;;;;;5072179;28;1345;-79
2022/10/27 09:28:59;;;;;;;;;;;;;;;;;;5084696;28;1308;-77
2022/10/27 09:31:30;;;;;;;;;;;;;;;;;;5076427;28;1462;-79
2022/10/27 09:33:57;;;;;;;;;;;;;;;;;;5079293;28;1105;-78
2022/10/27 09:36:24;;;;;;;;;;;;;;;;;;5095097;28;1067;-77
2022/10/27 09:38:50;;;;;;;;;;;;;;;;;;5094421;28;1906;-78
2022/10/27 09:41:16;;;;;;;;;;;;;;;;;;5094095;28;996;-78
2022/10/27 09:43:42;;;;;;;;;;;;;;;;;;5087737;28;1416;-79
2022/10/27 09:46:10;;;;;;;;;;;;;;;;;;5086039;28;1248;-77
2022/10/27 09:48:37;;;;;;;;;;;;;;;;;;5093531;28;1375;-77
2022/10/27 09:51:06;;;;;;;;;;;;;;;;;;5069897;28;1585;-79
2022/10/27 09:53:36;;;;;;;;;;;;;;;;;;5086919;28;1235;-78
2022/10/27 09:56:02;;;;;;;;;;;;;;;;;;5087989;28;1435;-78
2022/10/27 09:58:28;;;;;;;;;;;;;;;;;;5078979;28;1979;-76
2022/10/27 10:00:58;;;;;;;;;;;;;;;;;;5092987;28;1051;-77
2022/10/27 10:03:24;;;;;;;;;;;;;;;;;;5092802;28;1064;-78
2022/10/27 10:05:58;;;;;;;;;;;;;;;;;;5077886;28;1432;-78
2022/10/27 10:08:25;;;;;;;;;;;;;;;;;;5073663;28;1393;-76
2022/10/27 10:10:55;;;;;;;;;;;;;;;;;;5072459;28;1102;-78
2022/10/27 10:13:22;;;;;;;;;;;;;;;;;;5072048;28;905;-78
2022/10/27 10:15:48;;;;;;;;;;;;;;;;;;5070480;28;1364;-77
2022/10/27 10:18:22;;;;;;;;;;;;;;;;;;5064882;28;1913;-77
2022/10/27 10:20:48;;;;;;;;;;;;;;;;;;5085845;28;1110;-76
2022/10/27 10:23:19;;;;;;;;;;;;;;;;;;5075279;28;1524;-76
2022/10/27 10:25:48;;;;;;;;;;;;;;;;;;5088049;28;1181;-75
2022/10/27 10:28:17;;;;;;;;;;;;;;;;;;5092785;28;1304;-75
2022/10/27 10:30:43;;;;;;;;;;;;;;;;;;5092285;28;1015;-77
2022/10/27 10:33:14;;;;;;;;;;;;;;;;;;5092237;28;913;-78
2022/10/27 10:35:41;;;;;;;;;;;;;;;;;;5078793;28;1447;-77
2022/10/27 10:38:12;;;;;;;;;;;;;;;;;;5079951;28;1985;-76
2022/10/27 10:40:40;;;;;;;;;;;;;;;;;;5059380;28;1244;-76
2022/10/27 10:43:12;;;;;;;;;;;;;;;;;;5080259;28;886;-76
2022/10/27 10:45:38;;;;;;;;;;;;;;;;;;5057145;28;1462;-76
2022/10/27 10:48:06;;;;;;;;;;;;;;;;;;5054086;28;2088;-76
2022/10/27 10:50:32;;;;;;;;;;;;;;;;;;5069140;28;1416;-78
2022/10/27 10:52:58;;;;;;;;;;;;;;;;;;5057057;28;1154;-77
2022/10/27 10:55:25;;;;;;;;;;;;;;;;;;5062292;28;1455;-77
2022/10/27 10:57:53;;;;;;;;;;;;;;;;;;5073651;28;1446;-78
2022/10/27 11:00:20;;;;;;;;;;;;;;;;;;5080739;28;1916;-78
2022/10/27 11:02:50;;;;;;;;;;;;;;;;;;5071321;28;1341;-78
2022/10/27 11:05:18;;;;;;;;;;;;;;;;;;5069653;28;973;-79
2022/10/27 11:07:44;;;;;;;;;;;;;;;;;;5066355;28;1481;-78
2022/10/27 11:10:12;;;;;;;;;;;;;;;;;;5071265;28;1173;-78
2022/10/27 11:12:39;;;;;;;;;;;;;;;;;;5070135;28;798;-76
2022/10/27 11:15:10;;;;;;;;;;;;;;;;;;5051397;28;1317;-77
2022/10/27 11:17:36;;;;;;;;;;;;;;;;;;5084659;22;1802;-70
2022/10/27 11:20:03;;;;;;;;;;;;;;;;;;5056151;28;1933;-71
2022/10/27 11:22:30;;;;;;;;;;;;;;;;;;5059677;28;1201;-71
2022/10/27 11:24:57;;;;;;;;;;;;;;;;;;5070232;28;952;-71
2022/10/27 11:27:24;;;;;;;;;;;;;;;;;;5070411;28;1333;-72
2022/10/27 11:29:51;;;;;;;;;;;;;;;;;;5068907;28;1151;-74
2022/10/27 11:32:20;;;;;;;;;;;;;;;;;;5068998;28;1119;-73
2022/10/27 11:34:48;;;;;;;;;;;;;;;;;;5066109;28;1146;-74
2022/10/27 11:37:17;;;;;;;;;;;;;;;;;;5069202;28;1412;-74
2022/10/27 11:39:45;;;;;;;;;;;;;;;;;;5070669;28;1973;-73
2022/10/27 11:42:15;;;;;;;;;;;;;;;;;;5055536;28;1060;-74
2022/10/27 11:44:43;;;;;;;;;;;;;;;;;;5050217;28;961;-73
2022/10/27 11:47:10;;;;;;;;;;;;;;;;;;5047902;28;1616;-71
2022/10/27 11:49:38;;;;;;;;;;;;;;;;;;5044427;28;1153;-74
2022/10/27 11:52:06;;;;;;;;;;;;;;;;;;5050134;28;961;-72
2022/10/27 11:54:32;;;;;;;;;;;;;;;;;;5050405;28;799;-73
2022/10/27 11:57:01;;;;;;;;;;;;;;;;;;5049436;28;1715;-72
2022/10/27 11:59:29;;;;;;;;;;;;;;;;;;5045706;28;2137;-74
2022/10/27 12:02:00;;;;;;;;;;;;;;;;;;5030143;28;1136;-71
2022/10/27 12:04:30;;;;;;;;;;;;;;;;;;5045747;28;854;-72
2022/10/27 12:07:00;;;;;;;;;;;;;;;;;;5049519;28;1418;-74
2022/10/27 12:09:29;;;;;;;;;;;;;;;;;;5050953;28;1059;-74
2022/10/27 12:11:57;;;;;;;;;;;;;;;;;;5053038;28;1059;-70
2022/10/27 12:14:25;;;;;;;;;;;;;;;;;;5054589;28;1111;-71
2022/10/27 12:16:51;;;;;;;;;;;;;;;;;;5053157;28;1301;-71
2022/10/27 12:19:18;;;;;;;;;;;;;;;;;;5049132;28;1905;-71
2022/10/27 12:21:45;;;;;;;;;;;;;;;;;;5049607;28;1214;-73
2022/10/27 12:24:13;;;;;;;;;;;;;;;;;;5053478;28;950;-73
2022/10/27 12:26:40;;;;;;;;;;;;;;;;;;5053924;28;1111;-73
2022/10/27 12:29:07;;;;;;;;;;;;;;;;;;5053620;28;1387;-72
2022/10/27 12:31:33;;;;;;;;;;;;;;;;;;5053375;28;1107;-72
2022/10/27 12:34:00;;;;;;;;;;;;;;;;;;5050893;28;1059;-72
2022/10/27 12:36:28;;;;;;;;;;;;;;;;;;5052840;28;1482;-72
2022/10/27 12:38:55;;;;;;;;;;;;;;;;;;5052754;28;1910;-72
2022/10/27 12:41:25;;;;;;;;;;;;;;;;;;5051448;28;1159;-70
2022/10/27 12:43:53;;;;;;;;;;;;;;;;;;5035515;28;1157;-71
2022/10/27 12:46:35;;;;;;;;;;;;;;;;;;5041604;28;1475;-72
2022/10/27 12:49:05;;;;;;;;;;;;;;;;;;5030684;28;1384;-72
2022/10/27 12:51:32;;;;;;;;;;;;;;;;;;5030450;28;989;-72
2022/10/27 12:53:59;;;;;;;;;;;;;;;;;;5029516;28;894;-71
2022/10/27 12:56:33;;;;;;;;;;;;;;;;;;5030536;28;835;-71
2022/10/27 12:59:02;;;;;;;;;;;;;;;;;;5030822;28;1906;-71
2022/10/27 13:01:29;;;;;;;;;;;;;;;;;;5044114;28;1567;-71
2022/10/27 13:04:15;;;;;;;;;;;;;;;;;;5025906;28;1324;-71
2022/10/27 13:06:45;;;;;;;;;;;;;;;;;;5051192;28;1276;-71
2022/10/27 13:09:15;;;;;;;;;;;;;;;;;;5043386;28;1467;-72
2022/10/27 13:11:47;;;;;;;;;;;;;;;;;;5037852;28;1320;-73
2022/10/27 13:14:16;;;;;;;;;;;;;;;;;;5051876;28;1232;-71
2022/10/27 13:16:45;;;;;;;;;;;;;;;;;;5048782;28;1436;-72
2022/10/27 13:19:16;;;;;;;;;;;;;;;;;;5051108;28;1918;-70
2022/10/27 13:21:42;;;;;;;;;;;;;;;;;;5051107;28;1055;-72
2022/10/27 13:24:12;;;;;;;;;;;;;;;;;;5044487;28;1372;-71
2022/10/27 13:26:40;;;;;;;;;;;;;;;;;;5044716;28;1336;-73
2022/10/27 13:29:12;;;;;;;;;;;;;;;;;;5044396;28;1431;-72
2022/10/27 13:31:39;;;;;;;;;;;;;;;;;;5043290;28;1594;-71
2022/10/27 13:34:19;;;;;;;;;;;;;;;;;;5052047;28;1202;-73
2022/10/27 13:36:45;;;;;;;;;;;;;;;;;;5050290;28;1475;-71
2022/10/27 13:39:30;;;;;;;;;;;;;;;;;;5051436;28;1914;-71
2022/10/27 13:42:06;;;;;;;;;;;;;;;;;;5034182;28;898;-73
2022/10/27 13:44:34;;;;;;;;;;;;;;;;;;5052097;28;1123;-72
2022/10/27 13:47:15;;;;;;;;;;;;;;;;;;5052011;28;1349;-72
2022/10/27 13:49:54;;;;;;;;;;;;;;;;;;5050966;28;1524;-70
2022/10/27 13:52:21;;;;;;;;;;;;;;;;;;5047575;28;1288;-72
2022/10/27 13:54:48;;;;;;;;;;;;;;;;;;5045409;28;1352;-73
2022/10/27 13:57:25;;;;;;;;;;;;;;;;;;5045234;28;1527;-73
2022/10/27 13:59:53;;;;;;;;;;;;;;;;;;5043383;28;1911;-74
2022/10/27 14:02:21;;;;;;;;;;;;;;;;;;5033373;28;1582;-73
2022/10/27 14:04:47;;;;;;;;;;;;;;;;;;5049797;28;1384;-72
2022/10/27 14:07:14;;;;;;;;;;;;;;;;;;5050512;28;1677;-71
2022/10/27 14:09:44;;;;;;;;;;;;;;;;;;5050262;28;929;-69
2022/10/27 14:12:14;;;;;;;;;;;;;;;;;;5041869;28;1464;-73
2022/10/27 14:14:40;;;;;;;;;;;;;;;;;;5048569;28;1202;-72
2022/10/27 14:17:12;;;;;;;;;;;;;;;;;;5047285;28;1376;-71
2022/10/27 14:19:38;;;;;;;;;;;;;;;;;;5041490;28;1977;-73
2022/10/27 14:22:04;;;;;;;;;;;;;;;;;;5044925;28;1387;-72
2022/10/27 14:24:33;;;;;;;;;;;;;;;;;;5047060;28;1257;-73
2022/10/27 14:27:00;;;;;;;;;;;;;;;;;;5048696;28;1305;-74
2022/10/27 14:29:26;;;;;;;;;;;;;;;;;;5048018;28;1083;-73
2022/10/27 14:31:52;;;;;;;;;;;;;;;;;;5045634;28;1531;-72
2022/10/27 14:34:22;;;;;;;;;;;;;;;;;;5045600;28;1170;-72
2022/10/27 14:36:49;;;;;;;;;;;;;;;;;;5042561;28;1610;-74
2022/10/27 14:39:19;;;;;;;;;;;;;;;;;;5040313;28;1488;-72
2022/10/27 14:41:46;;;;;;;;;;;;;;;;;;5032788;28;1977;-73
2022/10/27 14:44:13;;;;;;;;;;;;;;;;;;5044088;28;1538;-73
2022/10/27 14:46:41;;;;;;;;;;;;;;;;;;5028860;28;838;-73
2022/10/27 14:49:08;;;;;;;;;;;;;;;;;;5020981;28;1381;-73
2022/10/27 14:51:36;;;;;;;;;;;;;;;;;;5047867;28;1404;-73
2022/10/27 14:54:02;;;;;;;;;;;;;;;;;;5046264;28;1455;-70
2022/10/27 14:56:29;;;;;;;;;;;;;;;;;;5042646;28;1432;-72
2022/10/27 14:58:56;;;;;;;;;;;;;;;;;;5047472;28;1459;-74
2022/10/27 15:01:23;;;;;;;;;;;;;;;;;;5032015;28;1906;-73
2022/10/27 15:03:49;;;;;;;;;;;;;;;;;;5051630;28;1253;-73
2022/10/27 15:06:16;;;;;;;;;;;;;;;;;;5051997;28;1080;-73
2022/10/27 15:08:43;;;;;;;;;;;;;;;;;;5052074;28;1351;-74
2022/10/27 15:11:13;;;;;;;;;;;;;;;;;;5051886;28;704;-72
2022/10/27 15:13:42;;;;;;;;;;;;;;;;;;5051179;28;929;-73
2022/10/27 15:16:10;;;;;;;;;;;;;;;;;;5047137;28;894;-73
2022/10/27 15:18:36;;;;;;;;;;;;;;;;;;5050189;28;1296;-74
2022/10/27 15:21:03;;;;;;;;;;;;;;;;;;5032433;28;1914;-73
2022/10/27 15:23:30;;;;;;;;;;;;;;;;;;5050519;28;1123;-73
2022/10/27 15:25:58;;;;;;;;;;;;;;;;;;5051534;28;1068;-73
2022/10/27 15:28:25;;;;;;;;;;;;;;;;;;5051321;28;1295;-73
2022/10/27 15:30:51;;;;;;;;;;;;;;;;;;5051525;28;1072;-73
2022/10/27 15:33:30;;;;;;;;;;;;;;;;;;5033000;28;1298;-74
2022/10/27 15:35:57;;;;;;;;;;;;;;;;;;5051456;28;1079;-71
2022/10/27 15:38:24;;;;;;;;;;;;;;;;;;5046947;28;1515;-73
2022/10/27 15:40:50;;;;;;;;;;;;;;;;;;5051349;28;1977;-74
2022/10/27 15:43:22;;;;;;;;;;;;;;;;;;5054216;28;1368;-74
2022/10/27 15:45:49;;;;;;;;;;;;;;;;;;5053586;28;1072;-74
2022/10/27 15:48:27;;;;;;;;;;;;;;;;;;5024175;28;1397;-75
2022/10/27 15:50:56;;;;;;;;;;;;;;;;;;4989784;28;861;-74
2022/10/27 15:53:23;;;;;;;;;;;;;;;;;;4970555;28;889;-74
2022/10/27 15:56:00;;;;;;;;;;;;;;;;;;4967748;28;910;-75
2022/10/27 15:58:32;;;;;;;;;;;;;;;;;;4946949;28;1377;-75
2022/10/27 16:01:03;;;;;;;;;;;;;;;;;;4966509;28;1958;-74
2022/10/27 16:03:30;;;;;;;;;;;;;;;;;;4976369;28;1409;-75
2022/10/27 16:06:12;;;;;;;;;;;;;;;;;;4968182;28;933;-74
2022/10/27 16:08:39;;;;;;;;;;;;;;;;;;4969720;28;1799;-74
2022/10/27 16:11:05;;;;;;;;;;;;;;;;;;4969806;28;933;-74
2022/10/27 16:13:33;;;;;;;;;;;;;;;;;;4972248;28;858;-73
2022/10/27 16:16:00;;;;;;;;;;;;;;;;;;4981002;28;1039;-74
2022/10/27 16:18:26;;;;;;;;;;;;;;;;;;4966140;28;1321;-74
2022/10/27 16:20:53;;;;;;;;;;;;;;;;;;4985768;28;2316;-74
2022/10/27 16:23:20;;;;;;;;;;;;;;;;;;4984301;28;1448;-73
2022/10/27 16:25:47;;;;;;;;;;;;;;;;;;4988379;28;882;-74
2022/10/27 16:28:14;;;;;;;;;;;;;;;;;;4970320;28;1404;-73
2022/10/27 16:30:42;;;;;;;;;;;;;;;;;;4988589;28;844;-74
2022/10/27 16:33:11;;;;;;;;;;;;;;;;;;4988312;28;794;-73
2022/10/27 16:35:38;;;;;;;;;;;;;;;;;;4989097;28;798;-74
2022/10/27 16:38:05;;;;;;;;;;;;;;;;;;4991123;28;1384;-74
2022/10/27 16:40:31;;;;;;;;;;;;;;;;;;4970992;28;1946;-76
2022/10/27 16:43:01;;;;;;;;;;;;;;;;;;4981203;28;1469;-74
2022/10/27 16:45:28;;;;;;;;;;;;;;;;;;4968708;28;822;-74
2022/10/27 16:47:59;;;;;;;;;;;;;;;;;;4953681;28;1983;-77
2022/10/27 16:50:25;;;;;;;;;;;;;;;;;;4980211;28;1309;-74
2022/10/27 16:52:52;;;;;;;;;;;;;;;;;;4981235;28;1160;-77
2022/10/27 16:55:19;;;;;;;;;;;;;;;;;;5006569;28;976;-74
2022/10/27 16:57:45;;;;;;;;;;;;;;;;;;4955926;28;1538;-75
2022/10/27 17:00:13;;;;;;;;;;;;;;;;;;4970865;28;1997;-74
2022/10/27 17:02:39;;;;;;;;;;;;;;;;;;4970364;28;917;-73
2022/10/27 17:05:07;;;;;;;;;;;;;;;;;;4970234;28;1428;-74
2022/10/27 17:07:35;;;;;;;;;;;;;;;;;;4964803;28;1357;-73